Madera, Pennsylvania
Current Conditions -  °F | °C
As of 1:54 PM on Friday 24 Oct 2014 (Local Time) from KFIG Reporting Station
Clear Clear  
Wind Chill: 59°   Ceiling: Unl
Heat Index: 59°   Visibility: 10mi
Dew Point: 36°   Wind: 9mph
Humidity: 42%   Direction: 300°WNW
Pressure: 29.98"   Gusts: NA
Location:  40.83°N, 78.43°W
Report Text: KFIG 241754Z AUTO 30008KT 10SM CLR 15/02 A2998 RMK AO2 SLP153 T01500022 10150 20067 58017
Loading
Personal Weather Stations






























Interactive Weather Map
Tropical Storm Tracking
New forecast layout! Learn more

10-Day Weather Forecast

Advertisements
Track Severe Weather on mobile